sensor_id;sensor_type;location;lat;lon;timestamp;P1;durP1;ratioP1;P2;durP2;ratioP2
31210;SDS011;17836;50.948;3.946;2022-09-30T00:02:08;19.73;;;12.02;;
31210;SDS011;17836;50.948;3.946;2022-09-30T00:04:36;15.18;;;12.75;;
31210;SDS011;17836;50.948;3.946;2022-09-30T00:07:01;14.80;;;12.43;;
31210;SDS011;17836;50.948;3.946;2022-09-30T00:09:26;13.73;;;11.68;;
31210;SDS011;17836;50.948;3.946;2022-09-30T00:11:52;12.60;;;11.40;;
31210;SDS011;17836;50.948;3.946;2022-09-30T00:14:18;14.23;;;12.05;;
31210;SDS011;17836;50.948;3.946;2022-09-30T00:16:44;15.43;;;12.63;;
31210;SDS011;17836;50.948;3.946;2022-09-30T00:19:09;13.35;;;11.77;;
31210;SDS011;17836;50.948;3.946;2022-09-30T00:21:35;13.45;;;12.15;;
31210;SDS011;17836;50.948;3.946;2022-09-30T00:24:01;14.50;;;13.15;;
31210;SDS011;17836;50.948;3.946;2022-09-30T00:26:26;12.45;;;11.15;;
31210;SDS011;17836;50.948;3.946;2022-09-30T00:28:53;13.07;;;11.75;;
31210;SDS011;17836;50.948;3.946;2022-09-30T00:31:18;14.32;;;13.02;;
31210;SDS011;17836;50.948;3.946;2022-09-30T00:33:44;13.73;;;12.40;;
31210;SDS011;17836;50.948;3.946;2022-09-30T00:36:29;14.05;;;12.25;;
31210;SDS011;17836;50.948;3.946;2022-09-30T00:38:55;15.57;;;13.63;;
31210;SDS011;17836;50.948;3.946;2022-09-30T00:41:20;17.40;;;13.63;;
31210;SDS011;17836;50.948;3.946;2022-09-30T00:43:46;12.02;;;10.90;;
31210;SDS011;17836;50.948;3.946;2022-09-30T00:46:39;14.25;;;11.65;;
31210;SDS011;17836;50.948;3.946;2022-09-30T00:49:09;16.00;;;13.77;;
31210;SDS011;17836;50.948;3.946;2022-09-30T00:51:37;13.55;;;12.40;;
31210;SDS011;17836;50.948;3.946;2022-09-30T00:54:05;14.07;;;12.60;;
31210;SDS011;17836;50.948;3.946;2022-09-30T00:56:41;14.77;;;12.48;;
31210;SDS011;17836;50.948;3.946;2022-09-30T00:59:15;14.48;;;13.00;;
31210;SDS011;17836;50.948;3.946;2022-09-30T01:01:42;14.45;;;12.15;;
31210;SDS011;17836;50.948;3.946;2022-09-30T01:04:11;14.13;;;12.63;;
31210;SDS011;17836;50.948;3.946;2022-09-30T01:06:38;14.23;;;12.82;;
31210;SDS011;17836;50.948;3.946;2022-09-30T01:09:04;14.13;;;12.90;;
31210;SDS011;17836;50.948;3.946;2022-09-30T01:11:29;13.68;;;12.35;;
31210;SDS011;17836;50.948;3.946;2022-09-30T01:13:56;14.20;;;12.45;;
31210;SDS011;17836;50.948;3.946;2022-09-30T01:16:30;14.30;;;13.00;;
31210;SDS011;17836;50.948;3.946;2022-09-30T01:24:29;14.85;;;13.30;;
31210;SDS011;17836;50.948;3.946;2022-09-30T01:35:01;14.70;;;12.77;;
31210;SDS011;17836;50.948;3.946;2022-09-30T01:40:14;16.70;;;13.35;;
31210;SDS011;17836;50.948;3.946;2022-09-30T01:45:19;13.80;;;12.55;;
31210;SDS011;17836;50.948;3.946;2022-09-30T01:47:50;15.15;;;13.63;;
31210;SDS011;17836;50.948;3.946;2022-09-30T01:50:21;17.48;;;14.45;;
31210;SDS011;17836;50.948;3.946;2022-09-30T02:00:42;19.60;;;15.23;;
31210;SDS011;17836;50.948;3.946;2022-09-30T02:08:12;15.00;;;13.50;;
31210;SDS011;17836;50.948;3.946;2022-09-30T02:10:41;13.88;;;12.48;;
31210;SDS011;17836;50.948;3.946;2022-09-30T02:13:14;16.42;;;14.68;;
31210;SDS011;17836;50.948;3.946;2022-09-30T02:15:42;19.83;;;13.52;;
31210;SDS011;17836;50.948;3.946;2022-09-30T02:20:43;15.38;;;13.98;;
31210;SDS011;17836;50.948;3.946;2022-09-30T02:23:13;14.88;;;13.48;;
31210;SDS011;17836;50.948;3.946;2022-09-30T02:25:43;14.23;;;12.98;;
31210;SDS011;17836;50.948;3.946;2022-09-30T02:28:11;16.00;;;14.45;;
31210;SDS011;17836;50.948;3.946;2022-09-30T02:30:40;17.48;;;13.65;;
31210;SDS011;17836;50.948;3.946;2022-09-30T02:33:18;17.48;;;15.63;;
31210;SDS011;17836;50.948;3.946;2022-09-30T02:35:46;15.93;;;14.40;;
31210;SDS011;17836;50.948;3.946;2022-09-30T02:38:20;18.73;;;14.43;;
31210;SDS011;17836;50.948;3.946;2022-09-30T02:40:53;19.45;;;15.13;;
31210;SDS011;17836;50.948;3.946;2022-09-30T02:43:20;16.58;;;14.75;;
31210;SDS011;17836;50.948;3.946;2022-09-30T02:50:47;18.88;;;16.08;;
31210;SDS011;17836;50.948;3.946;2022-09-30T02:53:18;16.55;;;14.98;;
31210;SDS011;17836;50.948;3.946;2022-09-30T02:58:29;16.35;;;14.77;;
31210;SDS011;17836;50.948;3.946;2022-09-30T03:00:55;20.83;;;16.70;;
31210;SDS011;17836;50.948;3.946;2022-09-30T03:03:22;20.52;;;17.13;;
31210;SDS011;17836;50.948;3.946;2022-09-30T03:05:49;16.38;;;14.70;;
31210;SDS011;17836;50.948;3.946;2022-09-30T03:08:14;16.42;;;14.68;;
31210;SDS011;17836;50.948;3.946;2022-09-30T03:10:40;16.40;;;14.77;;
31210;SDS011;17836;50.948;3.946;2022-09-30T03:13:09;15.30;;;13.70;;
31210;SDS011;17836;50.948;3.946;2022-09-30T03:31:16;17.08;;;15.25;;
31210;SDS011;17836;50.948;3.946;2022-09-30T03:33:54;19.27;;;15.27;;
31210;SDS011;17836;50.948;3.946;2022-09-30T03:36:26;18.42;;;15.05;;
31210;SDS011;17836;50.948;3.946;2022-09-30T03:39:00;16.10;;;14.43;;
31210;SDS011;17836;50.948;3.946;2022-09-30T03:44:11;19.17;;;17.17;;
31210;SDS011;17836;50.948;3.946;2022-09-30T03:46:50;22.20;;;18.08;;
31210;SDS011;17836;50.948;3.946;2022-09-30T03:49:20;20.63;;;17.63;;
31210;SDS011;17836;50.948;3.946;2022-09-30T03:51:47;18.95;;;16.92;;
31210;SDS011;17836;50.948;3.946;2022-09-30T03:54:12;19.43;;;17.23;;
31210;SDS011;17836;50.948;3.946;2022-09-30T03:56:38;22.00;;;17.00;;
31210;SDS011;17836;50.948;3.946;2022-09-30T03:59:22;20.13;;;17.67;;
31210;SDS011;17836;50.948;3.946;2022-09-30T04:01:49;24.83;;;17.25;;
31210;SDS011;17836;50.948;3.946;2022-09-30T04:04:15;21.25;;;16.95;;
31210;SDS011;17836;50.948;3.946;2022-09-30T04:06:40;21.07;;;16.47;;
31210;SDS011;17836;50.948;3.946;2022-09-30T04:09:05;19.45;;;17.05;;
31210;SDS011;17836;50.948;3.946;2022-09-30T04:11:31;22.90;;;17.17;;
31210;SDS011;17836;50.948;3.946;2022-09-30T04:13:56;17.33;;;15.60;;
31210;SDS011;17836;50.948;3.946;2022-09-30T04:16:21;19.98;;;16.77;;
31210;SDS011;17836;50.948;3.946;2022-09-30T04:18:47;20.20;;;16.30;;
31210;SDS011;17836;50.948;3.946;2022-09-30T04:21:13;18.48;;;16.58;;
31210;SDS011;17836;50.948;3.946;2022-09-30T04:23:39;18.27;;;15.90;;
31210;SDS011;17836;50.948;3.946;2022-09-30T04:26:05;19.55;;;16.85;;
31210;SDS011;17836;50.948;3.946;2022-09-30T04:28:30;19.77;;;15.77;;
31210;SDS011;17836;50.948;3.946;2022-09-30T04:30:57;19.70;;;16.55;;
31210;SDS011;17836;50.948;3.946;2022-09-30T04:33:23;25.90;;;17.17;;
31210;SDS011;17836;50.948;3.946;2022-09-30T04:35:51;20.47;;;16.70;;
31210;SDS011;17836;50.948;3.946;2022-09-30T04:38:16;21.88;;;16.95;;
31210;SDS011;17836;50.948;3.946;2022-09-30T04:40:42;21.13;;;17.13;;
31210;SDS011;17836;50.948;3.946;2022-09-30T04:43:07;19.58;;;16.70;;
31210;SDS011;17836;50.948;3.946;2022-09-30T04:45:33;19.55;;;16.10;;
31210;SDS011;17836;50.948;3.946;2022-09-30T04:47:58;19.57;;;16.60;;
31210;SDS011;17836;50.948;3.946;2022-09-30T04:50:23;26.35;;;19.08;;
31210;SDS011;17836;50.948;3.946;2022-09-30T04:52:49;28.45;;;20.08;;
31210;SDS011;17836;50.948;3.946;2022-09-30T04:55:14;25.00;;;20.20;;
31210;SDS011;17836;50.948;3.946;2022-09-30T04:57:42;28.25;;;20.73;;
31210;SDS011;17836;50.948;3.946;2022-09-30T05:00:08;22.98;;;18.40;;
31210;SDS011;17836;50.948;3.946;2022-09-30T05:02:33;24.85;;;19.23;;
31210;SDS011;17836;50.948;3.946;2022-09-30T05:04:59;24.65;;;19.80;;
31210;SDS011;17836;50.948;3.946;2022-09-30T05:07:24;24.70;;;18.48;;
31210;SDS011;17836;50.948;3.946;2022-09-30T05:09:51;26.50;;;19.60;;
31210;SDS011;17836;50.948;3.946;2022-09-30T05:12:17;25.75;;;19.65;;
31210;SDS011;17836;50.948;3.946;2022-09-30T05:14:42;22.73;;;18.38;;
31210;SDS011;17836;50.948;3.946;2022-09-30T05:17:08;22.90;;;19.10;;
31210;SDS011;17836;50.948;3.946;2022-09-30T05:19:33;24.48;;;18.88;;
31210;SDS011;17836;50.948;3.946;2022-09-30T05:21:58;24.00;;;19.75;;
31210;SDS011;17836;50.948;3.946;2022-09-30T05:24:24;26.77;;;19.33;;
31210;SDS011;17836;50.948;3.946;2022-09-30T05:26:50;36.25;;;19.67;;
31210;SDS011;17836;50.948;3.946;2022-09-30T05:29:15;26.27;;;18.90;;
31210;SDS011;17836;50.948;3.946;2022-09-30T05:31:41;26.33;;;19.13;;
31210;SDS011;17836;50.948;3.946;2022-09-30T05:34:06;25.30;;;19.17;;
31210;SDS011;17836;50.948;3.946;2022-09-30T05:36:31;22.73;;;18.40;;
31210;SDS011;17836;50.948;3.946;2022-09-30T05:38:57;25.27;;;20.55;;
31210;SDS011;17836;50.948;3.946;2022-09-30T05:41:22;28.27;;;19.23;;
31210;SDS011;17836;50.948;3.946;2022-09-30T05:43:48;23.40;;;18.52;;
31210;SDS011;17836;50.948;3.946;2022-09-30T05:46:14;24.17;;;17.48;;
31210;SDS011;17836;50.948;3.946;2022-09-30T05:48:40;22.52;;;18.50;;
31210;SDS011;17836;50.948;3.946;2022-09-30T05:51:06;24.40;;;19.25;;
31210;SDS011;17836;50.948;3.946;2022-09-30T05:53:32;22.90;;;18.95;;
31210;SDS011;17836;50.948;3.946;2022-09-30T05:55:58;23.77;;;18.15;;
31210;SDS011;17836;50.948;3.946;2022-09-30T05:58:24;27.88;;;20.50;;
31210;SDS011;17836;50.948;3.946;2022-09-30T06:00:50;26.45;;;20.30;;
31210;SDS011;17836;50.948;3.946;2022-09-30T06:03:16;25.27;;;19.00;;
31210;SDS011;17836;50.948;3.946;2022-09-30T06:05:41;25.83;;;19.55;;
31210;SDS011;17836;50.948;3.946;2022-09-30T06:08:09;30.73;;;20.60;;
31210;SDS011;17836;50.948;3.946;2022-09-30T06:10:34;39.42;;;21.50;;
31210;SDS011;17836;50.948;3.946;2022-09-30T06:13:03;27.70;;;20.75;;
31210;SDS011;17836;50.948;3.946;2022-09-30T06:15:29;32.85;;;21.63;;
31210;SDS011;17836;50.948;3.946;2022-09-30T06:17:54;30.83;;;20.38;;
31210;SDS011;17836;50.948;3.946;2022-09-30T06:20:20;33.17;;;20.90;;
31210;SDS011;17836;50.948;3.946;2022-09-30T06:22:46;30.70;;;21.50;;
31210;SDS011;17836;50.948;3.946;2022-09-30T06:25:11;34.30;;;23.53;;
31210;SDS011;17836;50.948;3.946;2022-09-30T06:27:37;36.95;;;25.98;;
31210;SDS011;17836;50.948;3.946;2022-09-30T06:30:03;41.13;;;28.43;;
31210;SDS011;17836;50.948;3.946;2022-09-30T06:32:28;33.90;;;23.13;;
31210;SDS011;17836;50.948;3.946;2022-09-30T06:34:54;30.38;;;20.95;;
31210;SDS011;17836;50.948;3.946;2022-09-30T06:37:23;34.08;;;22.25;;
31210;SDS011;17836;50.948;3.946;2022-09-30T06:39:48;31.20;;;23.10;;
31210;SDS011;17836;50.948;3.946;2022-09-30T06:42:15;32.85;;;23.65;;
31210;SDS011;17836;50.948;3.946;2022-09-30T06:44:40;33.65;;;23.17;;
31210;SDS011;17836;50.948;3.946;2022-09-30T06:47:05;32.70;;;24.27;;
31210;SDS011;17836;50.948;3.946;2022-09-30T06:49:31;32.53;;;24.42;;
31210;SDS011;17836;50.948;3.946;2022-09-30T06:51:58;35.25;;;24.90;;
31210;SDS011;17836;50.948;3.946;2022-09-30T06:54:24;36.45;;;25.38;;
31210;SDS011;17836;50.948;3.946;2022-09-30T06:56:51;30.83;;;22.23;;
31210;SDS011;17836;50.948;3.946;2022-09-30T06:59:17;27.92;;;21.77;;
31210;SDS011;17836;50.948;3.946;2022-09-30T07:01:43;28.95;;;21.70;;
31210;SDS011;17836;50.948;3.946;2022-09-30T07:04:12;31.23;;;22.95;;
31210;SDS011;17836;50.948;3.946;2022-09-30T07:06:37;34.40;;;24.13;;
31210;SDS011;17836;50.948;3.946;2022-09-30T07:09:03;34.70;;;24.80;;
31210;SDS011;17836;50.948;3.946;2022-09-30T07:11:28;29.40;;;22.55;;
31210;SDS011;17836;50.948;3.946;2022-09-30T07:13:53;33.90;;;22.33;;
31210;SDS011;17836;50.948;3.946;2022-09-30T07:16:19;26.88;;;21.30;;
31210;SDS011;17836;50.948;3.946;2022-09-30T07:18:45;25.80;;;21.73;;
31210;SDS011;17836;50.948;3.946;2022-09-30T07:21:11;29.63;;;21.05;;
31210;SDS011;17836;50.948;3.946;2022-09-30T07:23:37;30.38;;;21.55;;
31210;SDS011;17836;50.948;3.946;2022-09-30T07:26:03;31.98;;;22.10;;
31210;SDS011;17836;50.948;3.946;2022-09-30T07:28:30;26.63;;;21.02;;
31210;SDS011;17836;50.948;3.946;2022-09-30T07:30:57;25.38;;;20.13;;
31210;SDS011;17836;50.948;3.946;2022-09-30T07:33:24;27.33;;;20.33;;
31210;SDS011;17836;50.948;3.946;2022-09-30T07:35:53;23.13;;;20.10;;
31210;SDS011;17836;50.948;3.946;2022-09-30T07:38:20;20.10;;;16.98;;
31210;SDS011;17836;50.948;3.946;2022-09-30T07:40:53;23.05;;;17.67;;
31210;SDS011;17836;50.948;3.946;2022-09-30T07:43:18;22.10;;;17.98;;
31210;SDS011;17836;50.948;3.946;2022-09-30T07:45:45;21.30;;;16.02;;
31210;SDS011;17836;50.948;3.946;2022-09-30T07:48:10;19.85;;;15.35;;
31210;SDS011;17836;50.948;3.946;2022-09-30T07:50:55;16.77;;;13.32;;
31210;SDS011;17836;50.948;3.946;2022-09-30T07:53:21;15.75;;;12.80;;
31210;SDS011;17836;50.948;3.946;2022-09-30T07:55:47;17.48;;;11.75;;
31210;SDS011;17836;50.948;3.946;2022-09-30T07:58:12;15.17;;;12.73;;
31210;SDS011;17836;50.948;3.946;2022-09-30T08:00:37;14.32;;;12.88;;
31210;SDS011;17836;50.948;3.946;2022-09-30T08:03:03;13.93;;;12.63;;
31210;SDS011;17836;50.948;3.946;2022-09-30T08:05:29;12.75;;;11.43;;
31210;SDS011;17836;50.948;3.946;2022-09-30T08:07:54;16.85;;;10.88;;
31210;SDS011;17836;50.948;3.946;2022-09-30T08:10:19;10.90;;;9.83;;
31210;SDS011;17836;50.948;3.946;2022-09-30T08:12:45;12.57;;;9.32;;
31210;SDS011;17836;50.948;3.946;2022-09-30T08:15:10;16.48;;;10.05;;
31210;SDS011;17836;50.948;3.946;2022-09-30T08:17:36;12.37;;;8.43;;
31210;SDS011;17836;50.948;3.946;2022-09-30T08:20:01;16.33;;;9.68;;
31210;SDS011;17836;50.948;3.946;2022-09-30T08:22:27;8.90;;;7.95;;
31210;SDS011;17836;50.948;3.946;2022-09-30T08:24:53;10.45;;;7.88;;
31210;SDS011;17836;50.948;3.946;2022-09-30T08:27:18;8.13;;;7.07;;
31210;SDS011;17836;50.948;3.946;2022-09-30T08:29:44;12.02;;;8.00;;
31210;SDS011;17836;50.948;3.946;2022-09-30T08:32:10;11.88;;;7.25;;
31210;SDS011;17836;50.948;3.946;2022-09-30T08:34:35;21.97;;;9.73;;
31210;SDS011;17836;50.948;3.946;2022-09-30T08:37:00;10.98;;;8.88;;
31210;SDS011;17836;50.948;3.946;2022-09-30T08:39:26;14.40;;;9.40;;
31210;SDS011;17836;50.948;3.946;2022-09-30T08:42:11;11.70;;;9.90;;
31210;SDS011;17836;50.948;3.946;2022-09-30T08:44:41;10.00;;;8.23;;
31210;SDS011;17836;50.948;3.946;2022-09-30T08:50:02;8.82;;;6.13;;
31210;SDS011;17836;50.948;3.946;2022-09-30T08:52:39;10.13;;;7.28;;
31210;SDS011;17836;50.948;3.946;2022-09-30T08:55:06;8.90;;;7.13;;
31210;SDS011;17836;50.948;3.946;2022-09-30T08:57:41;9.25;;;5.90;;
31210;SDS011;17836;50.948;3.946;2022-09-30T09:00:10;13.57;;;7.82;;
31210;SDS011;17836;50.948;3.946;2022-09-30T09:02:39;10.10;;;7.32;;
31210;SDS011;17836;50.948;3.946;2022-09-30T09:05:10;7.88;;;5.80;;
31210;SDS011;17836;50.948;3.946;2022-09-30T09:07:44;12.25;;;7.25;;
31210;SDS011;17836;50.948;3.946;2022-09-30T09:18:18;8.25;;;5.43;;
31210;SDS011;17836;50.948;3.946;2022-09-30T09:20:55;9.35;;;6.03;;
31210;SDS011;17836;50.948;3.946;2022-09-30T09:23:21;11.60;;;6.25;;
31210;SDS011;17836;50.948;3.946;2022-09-30T09:25:47;7.28;;;5.57;;
31210;SDS011;17836;50.948;3.946;2022-09-30T09:29:05;18.17;;;7.28;;
31210;SDS011;17836;50.948;3.946;2022-09-30T09:31:03;11.00;;;7.13;;
31210;SDS011;17836;50.948;3.946;2022-09-30T09:33:29;9.30;;;7.55;;
31210;SDS011;17836;50.948;3.946;2022-09-30T09:36:11;9.15;;;6.50;;
31210;SDS011;17836;50.948;3.946;2022-09-30T09:41:30;11.30;;;5.85;;
31210;SDS011;17836;50.948;3.946;2022-09-30T09:46:45;6.60;;;5.63;;
31210;SDS011;17836;50.948;3.946;2022-09-30T09:51:42;8.57;;;6.47;;
31210;SDS011;17836;50.948;3.946;2022-09-30T09:54:11;6.72;;;5.95;;
31210;SDS011;17836;50.948;3.946;2022-09-30T09:56:37;9.15;;;6.13;;
31210;SDS011;17836;50.948;3.946;2022-09-30T09:59:07;9.27;;;6.20;;
31210;SDS011;17836;50.948;3.946;2022-09-30T10:01:34;6.40;;;5.88;;
31210;SDS011;17836;50.948;3.946;2022-09-30T10:04:34;7.60;;;5.75;;
31210;SDS011;17836;50.948;3.946;2022-09-30T10:07:01;12.23;;;6.25;;
31210;SDS011;17836;50.948;3.946;2022-09-30T10:09:36;6.93;;;5.22;;
31210;SDS011;17836;50.948;3.946;2022-09-30T10:17:04;10.23;;;6.77;;
31210;SDS011;17836;50.948;3.946;2022-09-30T10:19:31;10.13;;;6.68;;
31210;SDS011;17836;50.948;3.946;2022-09-30T10:24:31;6.65;;;5.93;;
31210;SDS011;17836;50.948;3.946;2022-09-30T10:26:56;14.03;;;7.33;;
31210;SDS011;17836;50.948;3.946;2022-09-30T10:31:51;6.68;;;5.28;;
31210;SDS011;17836;50.948;3.946;2022-09-30T10:36:41;8.17;;;5.93;;
31210;SDS011;17836;50.948;3.946;2022-09-30T10:39:27;5.00;;;4.00;;
31210;SDS011;17836;50.948;3.946;2022-09-30T10:42:06;4.47;;;3.33;;
31210;SDS011;17836;50.948;3.946;2022-09-30T10:44:37;6.05;;;3.50;;
31210;SDS011;17836;50.948;3.946;2022-09-30T10:47:06;5.35;;;3.65;;
31210;SDS011;17836;50.948;3.946;2022-09-30T10:49:38;5.85;;;3.15;;
31210;SDS011;17836;50.948;3.946;2022-09-30T10:52:12;6.43;;;3.85;;
31210;SDS011;17836;50.948;3.946;2022-09-30T10:54:58;7.07;;;3.20;;
31210;SDS011;17836;50.948;3.946;2022-09-30T11:00:12;5.35;;;4.13;;
31210;SDS011;17836;50.948;3.946;2022-09-30T11:12:48;5.68;;;3.58;;
31210;SDS011;17836;50.948;3.946;2022-09-30T11:15:21;4.53;;;4.13;;
31210;SDS011;17836;50.948;3.946;2022-09-30T11:17:55;7.28;;;4.40;;
31210;SDS011;17836;50.948;3.946;2022-09-30T11:20:30;4.53;;;4.13;;
31210;SDS011;17836;50.948;3.946;2022-09-30T11:30:24;5.77;;;4.07;;
31210;SDS011;17836;50.948;3.946;2022-09-30T11:35:29;8.23;;;3.88;;
31210;SDS011;17836;50.948;3.946;2022-09-30T11:48:12;7.90;;;4.38;;
31210;SDS011;17836;50.948;3.946;2022-09-30T11:50:44;5.93;;;3.88;;
31210;SDS011;17836;50.948;3.946;2022-09-30T11:53:13;7.27;;;4.23;;
31210;SDS011;17836;50.948;3.946;2022-09-30T11:58:10;4.40;;;3.40;;
31210;SDS011;17836;50.948;3.946;2022-09-30T12:00:40;3.53;;;3.22;;
31210;SDS011;17836;50.948;3.946;2022-09-30T12:03:09;6.10;;;3.47;;
31210;SDS011;17836;50.948;3.946;2022-09-30T12:05:40;3.40;;;3.10;;
31210;SDS011;17836;50.948;3.946;2022-09-30T12:10:55;5.00;;;3.55;;
31210;SDS011;17836;50.948;3.946;2022-09-30T12:13:23;4.18;;;2.95;;
31210;SDS011;17836;50.948;3.946;2022-09-30T12:15:51;4.80;;;3.17;;
31210;SDS011;17836;50.948;3.946;2022-09-30T12:18:29;4.05;;;3.65;;
31210;SDS011;17836;50.948;3.946;2022-09-30T12:21:03;5.40;;;3.42;;
31210;SDS011;17836;50.948;3.946;2022-09-30T12:23:35;5.47;;;3.90;;
31210;SDS011;17836;50.948;3.946;2022-09-30T12:26:03;4.35;;;3.60;;
31210;SDS011;17836;50.948;3.946;2022-09-30T12:29:04;4.55;;;4.20;;
31210;SDS011;17836;50.948;3.946;2022-09-30T12:37:03;4.63;;;3.30;;
31210;SDS011;17836;50.948;3.946;2022-09-30T12:49:39;7.53;;;4.35;;
31210;SDS011;17836;50.948;3.946;2022-09-30T12:52:15;5.35;;;3.85;;
31210;SDS011;17836;50.948;3.946;2022-09-30T12:54:41;4.78;;;3.70;;
31210;SDS011;17836;50.948;3.946;2022-09-30T12:57:08;4.18;;;2.92;;
31210;SDS011;17836;50.948;3.946;2022-09-30T13:00:17;3.53;;;3.22;;
31210;SDS011;17836;50.948;3.946;2022-09-30T13:02:39;7.78;;;6.03;;
31210;SDS011;17836;50.948;3.946;2022-09-30T13:10:31;3.25;;;2.85;;
31210;SDS011;17836;50.948;3.946;2022-09-30T13:20:54;5.10;;;3.40;;
31210;SDS011;17836;50.948;3.946;2022-09-30T13:31:24;3.72;;;3.13;;
31210;SDS011;17836;50.948;3.946;2022-09-30T13:36:25;4.20;;;3.20;;
31210;SDS011;17836;50.948;3.946;2022-09-30T13:41:35;4.20;;;3.70;;
31210;SDS011;17836;50.948;3.946;2022-09-30T13:44:05;3.45;;;3.00;;
31210;SDS011;17836;50.948;3.946;2022-09-30T13:46:39;3.95;;;3.58;;
31210;SDS011;17836;50.948;3.946;2022-09-30T13:51:42;3.63;;;2.75;;
31210;SDS011;17836;50.948;3.946;2022-09-30T13:54:31;7.00;;;3.70;;
31210;SDS011;17836;50.948;3.946;2022-09-30T13:56:55;4.00;;;2.30;;
31210;SDS011;17836;50.948;3.946;2022-09-30T14:22:38;3.20;;;1.60;;
31210;SDS011;17836;50.948;3.946;2022-09-30T14:25:08;3.95;;;1.42;;
31210;SDS011;17836;50.948;3.946;2022-09-30T14:30:26;2.33;;;1.80;;
31210;SDS011;17836;50.948;3.946;2022-09-30T14:35:20;1.70;;;1.42;;
31210;SDS011;17836;50.948;3.946;2022-09-30T14:37:47;1.40;;;1.30;;
31210;SDS011;17836;50.948;3.946;2022-09-30T14:40:17;3.17;;;1.70;;
31210;SDS011;17836;50.948;3.946;2022-09-30T14:42:42;3.20;;;1.40;;
31210;SDS011;17836;50.948;3.946;2022-09-30T14:45:11;1.67;;;1.42;;
31210;SDS011;17836;50.948;3.946;2022-09-30T14:47:43;3.20;;;1.52;;
31210;SDS011;17836;50.948;3.946;2022-09-30T14:50:10;2.45;;;1.40;;
31210;SDS011;17836;50.948;3.946;2022-09-30T14:52:42;2.10;;;1.30;;
31210;SDS011;17836;50.948;3.946;2022-09-30T14:55:42;2.83;;;1.08;;
31210;SDS011;17836;50.948;3.946;2022-09-30T15:00:48;3.72;;;1.10;;
31210;SDS011;17836;50.948;3.946;2022-09-30T15:03:14;2.08;;;1.10;;
31210;SDS011;17836;50.948;3.946;2022-09-30T15:05:39;5.13;;;1.87;;
31210;SDS011;17836;50.948;3.946;2022-09-30T15:08:26;5.45;;;1.48;;
31210;SDS011;17836;50.948;3.946;2022-09-30T15:10:52;2.75;;;1.70;;
31210;SDS011;17836;50.948;3.946;2022-09-30T15:13:19;6.15;;;1.83;;
31210;SDS011;17836;50.948;3.946;2022-09-30T15:15:44;3.50;;;1.73;;
31210;SDS011;17836;50.948;3.946;2022-09-30T15:23:19;2.17;;;1.90;;
31210;SDS011;17836;50.948;3.946;2022-09-30T15:25:45;2.40;;;1.67;;
31210;SDS011;17836;50.948;3.946;2022-09-30T15:28:11;1.80;;;1.55;;
31210;SDS011;17836;50.948;3.946;2022-09-30T15:30:36;2.00;;;1.40;;
31210;SDS011;17836;50.948;3.946;2022-09-30T15:33:02;3.75;;;1.55;;
31210;SDS011;17836;50.948;3.946;2022-09-30T15:35:29;2.00;;;1.35;;
31210;SDS011;17836;50.948;3.946;2022-09-30T15:38:04;1.63;;;0.95;;
31210;SDS011;17836;50.948;3.946;2022-09-30T15:40:30;2.20;;;0.93;;
31210;SDS011;17836;50.948;3.946;2022-09-30T15:43:11;1.50;;;1.00;;
31210;SDS011;17836;50.948;3.946;2022-09-30T15:45:42;1.67;;;0.95;;
31210;SDS011;17836;50.948;3.946;2022-09-30T15:50:51;2.22;;;1.15;;
31210;SDS011;17836;50.948;3.946;2022-09-30T15:53:29;3.72;;;1.13;;
31210;SDS011;17836;50.948;3.946;2022-09-30T15:55:56;3.45;;;1.30;;
31210;SDS011;17836;50.948;3.946;2022-09-30T16:00:50;1.48;;;0.90;;
31210;SDS011;17836;50.948;3.946;2022-09-30T16:05:44;1.60;;;1.20;;
31210;SDS011;17836;50.948;3.946;2022-09-30T16:08:13;3.88;;;1.20;;
31210;SDS011;17836;50.948;3.946;2022-09-30T16:10:47;5.85;;;1.45;;
31210;SDS011;17836;50.948;3.946;2022-09-30T16:13:13;4.82;;;1.25;;
31210;SDS011;17836;50.948;3.946;2022-09-30T16:15:38;3.72;;;1.15;;
31210;SDS011;17836;50.948;3.946;2022-09-30T16:18:04;1.63;;;1.52;;
31210;SDS011;17836;50.948;3.946;2022-09-30T16:20:29;2.33;;;1.50;;
31210;SDS011;17836;50.948;3.946;2022-09-30T16:23:00;2.90;;;1.70;;
31210;SDS011;17836;50.948;3.946;2022-09-30T16:25:27;2.83;;;1.73;;
31210;SDS011;17836;50.948;3.946;2022-09-30T16:28:10;2.25;;;1.05;;
31210;SDS011;17836;50.948;3.946;2022-09-30T16:30:43;3.75;;;2.40;;
31210;SDS011;17836;50.948;3.946;2022-09-30T16:33:10;9.50;;;1.75;;
31210;SDS011;17836;50.948;3.946;2022-09-30T16:35:37;7.85;;;1.80;;
31210;SDS011;17836;50.948;3.946;2022-09-30T16:38:05;5.35;;;1.52;;
31210;SDS011;17836;50.948;3.946;2022-09-30T16:40:31;1.23;;;1.10;;
31210;SDS011;17836;50.948;3.946;2022-09-30T16:42:57;4.70;;;1.70;;
31210;SDS011;17836;50.948;3.946;2022-09-30T16:45:25;2.25;;;1.55;;
31210;SDS011;17836;50.948;3.946;2022-09-30T16:47:51;3.63;;;1.95;;
31210;SDS011;17836;50.948;3.946;2022-09-30T16:52:52;5.47;;;1.48;;
31210;SDS011;17836;50.948;3.946;2022-09-30T16:55:17;3.83;;;2.30;;
31210;SDS011;17836;50.948;3.946;2022-09-30T16:57:43;3.83;;;3.25;;
31210;SDS011;17836;50.948;3.946;2022-09-30T17:00:11;4.03;;;2.22;;
31210;SDS011;17836;50.948;3.946;2022-09-30T17:02:36;3.78;;;2.22;;
31210;SDS011;17836;50.948;3.946;2022-09-30T17:05:02;9.47;;;8.57;;
31210;SDS011;17836;50.948;3.946;2022-09-30T17:07:27;9.95;;;8.73;;
31210;SDS011;17836;50.948;3.946;2022-09-30T17:09:52;9.03;;;8.13;;
31210;SDS011;17836;50.948;3.946;2022-09-30T17:12:17;10.23;;;4.70;;
31210;SDS011;17836;50.948;3.946;2022-09-30T17:14:43;4.23;;;2.17;;
31210;SDS011;17836;50.948;3.946;2022-09-30T17:17:08;2.63;;;1.95;;
31210;SDS011;17836;50.948;3.946;2022-09-30T17:19:34;2.95;;;1.77;;
31210;SDS011;17836;50.948;3.946;2022-09-30T17:22:01;3.10;;;2.80;;
31210;SDS011;17836;50.948;3.946;2022-09-30T17:24:26;4.45;;;3.20;;
31210;SDS011;17836;50.948;3.946;2022-09-30T17:26:52;6.25;;;4.82;;
31210;SDS011;17836;50.948;3.946;2022-09-30T17:29:17;8.07;;;5.93;;
31210;SDS011;17836;50.948;3.946;2022-09-30T17:31:42;9.07;;;6.23;;
31210;SDS011;17836;50.948;3.946;2022-09-30T17:34:08;8.70;;;4.80;;
31210;SDS011;17836;50.948;3.946;2022-09-30T17:36:33;4.70;;;4.17;;
31210;SDS011;17836;50.948;3.946;2022-09-30T17:39:00;13.02;;;8.05;;
31210;SDS011;17836;50.948;3.946;2022-09-30T17:41:25;11.20;;;8.80;;
31210;SDS011;17836;50.948;3.946;2022-09-30T17:44:09;14.05;;;8.02;;
31210;SDS011;17836;50.948;3.946;2022-09-30T17:46:38;14.97;;;8.17;;
31210;SDS011;17836;50.948;3.946;2022-09-30T17:49:04;17.00;;;9.90;;
31210;SDS011;17836;50.948;3.946;2022-09-30T17:51:29;22.10;;;10.23;;
31210;SDS011;17836;50.948;3.946;2022-09-30T17:53:54;21.33;;;10.50;;
31210;SDS011;17836;50.948;3.946;2022-09-30T17:56:20;23.30;;;9.95;;
31210;SDS011;17836;50.948;3.946;2022-09-30T17:58:46;27.02;;;11.82;;
31210;SDS011;17836;50.948;3.946;2022-09-30T18:01:16;23.45;;;8.98;;
31210;SDS011;17836;50.948;3.946;2022-09-30T18:03:42;28.10;;;11.18;;
31210;SDS011;17836;50.948;3.946;2022-09-30T18:06:09;29.10;;;10.95;;
31210;SDS011;17836;50.948;3.946;2022-09-30T18:08:34;32.05;;;10.82;;
31210;SDS011;17836;50.948;3.946;2022-09-30T18:11:02;15.05;;;6.20;;
31210;SDS011;17836;50.948;3.946;2022-09-30T18:13:27;37.73;;;12.37;;
31210;SDS011;17836;50.948;3.946;2022-09-30T18:15:53;34.90;;;12.07;;
31210;SDS011;17836;50.948;3.946;2022-09-30T18:18:18;20.75;;;10.00;;
31210;SDS011;17836;50.948;3.946;2022-09-30T18:20:45;6.50;;;3.92;;
31210;SDS011;17836;50.948;3.946;2022-09-30T18:23:11;6.00;;;3.33;;